Terminal Aerodrome Forecast
Issued by NWS Cleveland, OH

Home | Current Version | Previous Version | Text Only | Print | Product List | Glossary On
Versions: 1 2 3 4 5 6 7 8 9 10 11 12 13 14 15 16 17 18 19 20 21 22 23 24 25
248
FTUS41 KCLE 122341
TAFYNG
TAF
KYNG 122341Z 1300/1324 29012KT P6SM VCSH OVC045
      TEMPO 1300/1302 30015KT 3SM -SHSN BKN015
     FM130300 27015KT 6SM -SHSN OVC035
     FM131200 26012KT P6SM BKN025
     FM132000 23008KT 3SM -SN BKN010=

USA.gov is the U.S. government's official web portal to all federal, state and local government web resources and services.